sensor_id;sensor_type;location;lat;lon;timestamp;P1;durP1;ratioP1;P2;durP2;ratioP2
78589;SDS011;67888;50.228;7.828;2023-12-22T00:01:57;1.10;;;0.70;;
78589;SDS011;67888;50.228;7.828;2023-12-22T00:06:57;1.50;;;0.77;;
78589;SDS011;67888;50.228;7.828;2023-12-22T00:11:58;2.13;;;0.60;;
78589;SDS011;67888;50.228;7.828;2023-12-22T00:16:58;2.40;;;1.40;;
78589;SDS011;67888;50.228;7.828;2023-12-22T00:21:59;1.13;;;0.70;;
78589;SDS011;67888;50.228;7.828;2023-12-22T00:26:59;3.72;;;0.73;;
78589;SDS011;67888;50.228;7.828;2023-12-22T00:32:00;5.13;;;1.30;;
78589;SDS011;67888;50.228;7.828;2023-12-22T00:37:00;3.03;;;1.13;;
78589;SDS011;67888;50.228;7.828;2023-12-22T00:42:01;4.47;;;1.20;;
78589;SDS011;67888;50.228;7.828;2023-12-22T00:47:03;4.18;;;1.08;;
78589;SDS011;67888;50.228;7.828;2023-12-22T00:52:04;6.38;;;1.08;;
78589;SDS011;67888;50.228;7.828;2023-12-22T00:57:05;2.73;;;0.73;;
78589;SDS011;67888;50.228;7.828;2023-12-22T01:02:05;3.00;;;0.90;;
78589;SDS011;67888;50.228;7.828;2023-12-22T01:07:09;2.90;;;0.80;;
78589;SDS011;67888;50.228;7.828;2023-12-22T01:12:11;3.20;;;1.17;;
78589;SDS011;67888;50.228;7.828;2023-12-22T01:17:11;2.97;;;0.83;;
78589;SDS011;67888;50.228;7.828;2023-12-22T01:22:12;3.47;;;1.10;;
78589;SDS011;67888;50.228;7.828;2023-12-22T01:27:12;4.20;;;0.97;;
78589;SDS011;67888;50.228;7.828;2023-12-22T01:32:13;2.57;;;0.90;;
78589;SDS011;67888;50.228;7.828;2023-12-22T01:37:13;2.97;;;1.10;;
78589;SDS011;67888;50.228;7.828;2023-12-22T01:42:14;3.97;;;1.00;;
78589;SDS011;67888;50.228;7.828;2023-12-22T01:47:15;2.20;;;0.70;;
78589;SDS011;67888;50.228;7.828;2023-12-22T01:52:15;3.17;;;1.00;;
78589;SDS011;67888;50.228;7.828;2023-12-22T01:57:16;1.63;;;0.77;;
78589;SDS011;67888;50.228;7.828;2023-12-22T02:02:19;2.13;;;0.77;;
78589;SDS011;67888;50.228;7.828;2023-12-22T02:07:19;3.30;;;0.70;;
78589;SDS011;67888;50.228;7.828;2023-12-22T02:12:20;2.88;;;0.80;;
78589;SDS011;67888;50.228;7.828;2023-12-22T02:17:25;3.37;;;1.10;;
78589;SDS011;67888;50.228;7.828;2023-12-22T02:22:29;3.95;;;1.10;;
78589;SDS011;67888;50.228;7.828;2023-12-22T02:27:34;3.97;;;1.10;;
78589;SDS011;67888;50.228;7.828;2023-12-22T02:32:36;4.07;;;1.20;;
78589;SDS011;67888;50.228;7.828;2023-12-22T02:37:39;3.15;;;0.93;;
78589;SDS011;67888;50.228;7.828;2023-12-22T02:42:41;3.60;;;1.10;;
78589;SDS011;67888;50.228;7.828;2023-12-22T02:47:42;4.13;;;1.13;;
78589;SDS011;67888;50.228;7.828;2023-12-22T02:52:43;2.65;;;1.20;;
78589;SDS011;67888;50.228;7.828;2023-12-22T02:57:43;4.93;;;1.40;;
78589;SDS011;67888;50.228;7.828;2023-12-22T03:02:44;2.63;;;1.10;;
78589;SDS011;67888;50.228;7.828;2023-12-22T03:07:44;5.43;;;1.37;;
78589;SDS011;67888;50.228;7.828;2023-12-22T03:12:44;6.40;;;1.20;;
78589;SDS011;67888;50.228;7.828;2023-12-22T03:17:45;5.00;;;1.40;;
78589;SDS011;67888;50.228;7.828;2023-12-22T03:22:45;5.18;;;0.93;;
78589;SDS011;67888;50.228;7.828;2023-12-22T03:27:46;7.50;;;1.53;;
78589;SDS011;67888;50.228;7.828;2023-12-22T03:32:46;7.50;;;1.40;;
78589;SDS011;67888;50.228;7.828;2023-12-22T03:37:47;5.70;;;1.20;;
78589;SDS011;67888;50.228;7.828;2023-12-22T03:42:47;3.27;;;1.00;;
78589;SDS011;67888;50.228;7.828;2023-12-22T03:47:48;7.00;;;1.27;;
78589;SDS011;67888;50.228;7.828;2023-12-22T03:52:48;5.17;;;1.30;;
78589;SDS011;67888;50.228;7.828;2023-12-22T03:57:48;8.37;;;1.83;;
78589;SDS011;67888;50.228;7.828;2023-12-22T04:02:49;4.07;;;1.10;;
78589;SDS011;67888;50.228;7.828;2023-12-22T04:07:49;5.50;;;1.30;;
78589;SDS011;67888;50.228;7.828;2023-12-22T04:12:50;6.17;;;1.50;;
78589;SDS011;67888;50.228;7.828;2023-12-22T04:17:50;5.37;;;1.97;;
78589;SDS011;67888;50.228;7.828;2023-12-22T04:22:51;8.63;;;1.57;;
78589;SDS011;67888;50.228;7.828;2023-12-22T04:27:51;5.30;;;1.47;;
78589;SDS011;67888;50.228;7.828;2023-12-22T04:32:52;7.53;;;1.35;;
78589;SDS011;67888;50.228;7.828;2023-12-22T04:37:52;9.60;;;1.33;;
78589;SDS011;67888;50.228;7.828;2023-12-22T04:42:53;8.93;;;1.77;;
78589;SDS011;67888;50.228;7.828;2023-12-22T04:47:53;6.07;;;1.20;;
78589;SDS011;67888;50.228;7.828;2023-12-22T04:52:54;5.67;;;1.27;;
78589;SDS011;67888;50.228;7.828;2023-12-22T04:57:54;5.20;;;1.33;;
78589;SDS011;67888;50.228;7.828;2023-12-22T05:02:55;6.57;;;1.93;;
78589;SDS011;67888;50.228;7.828;2023-12-22T05:07:55;8.47;;;1.60;;
78589;SDS011;67888;50.228;7.828;2023-12-22T05:12:56;6.30;;;1.42;;
78589;SDS011;67888;50.228;7.828;2023-12-22T05:17:56;3.47;;;1.03;;
78589;SDS011;67888;50.228;7.828;2023-12-22T05:22:57;8.60;;;1.70;;
78589;SDS011;67888;50.228;7.828;2023-12-22T05:27:58;4.80;;;1.38;;
78589;SDS011;67888;50.228;7.828;2023-12-22T05:32:59;6.13;;;1.20;;
78589;SDS011;67888;50.228;7.828;2023-12-22T05:38:00;4.50;;;1.50;;
78589;SDS011;67888;50.228;7.828;2023-12-22T05:43:00;3.10;;;1.00;;
78589;SDS011;67888;50.228;7.828;2023-12-22T05:48:00;7.33;;;1.30;;
78589;SDS011;67888;50.228;7.828;2023-12-22T05:53:01;4.03;;;0.93;;
78589;SDS011;67888;50.228;7.828;2023-12-22T05:58:01;4.60;;;1.40;;
78589;SDS011;67888;50.228;7.828;2023-12-22T06:03:02;5.93;;;1.70;;
78589;SDS011;67888;50.228;7.828;2023-12-22T06:08:03;5.33;;;1.40;;
78589;SDS011;67888;50.228;7.828;2023-12-22T06:13:03;5.17;;;1.10;;
78589;SDS011;67888;50.228;7.828;2023-12-22T06:18:05;5.95;;;1.20;;
78589;SDS011;67888;50.228;7.828;2023-12-22T06:23:06;11.90;;;1.93;;
78589;SDS011;67888;50.228;7.828;2023-12-22T06:28:06;6.00;;;1.30;;
78589;SDS011;67888;50.228;7.828;2023-12-22T06:33:07;12.17;;;1.60;;
78589;SDS011;67888;50.228;7.828;2023-12-22T06:38:07;5.78;;;1.58;;
78589;SDS011;67888;50.228;7.828;2023-12-22T06:43:08;6.27;;;1.43;;
78589;SDS011;67888;50.228;7.828;2023-12-22T06:48:08;5.73;;;1.30;;
78589;SDS011;67888;50.228;7.828;2023-12-22T06:53:12;7.00;;;1.48;;
78589;SDS011;67888;50.228;7.828;2023-12-22T06:58:12;8.23;;;1.87;;
78589;SDS011;67888;50.228;7.828;2023-12-22T07:03:12;7.57;;;1.60;;
78589;SDS011;67888;50.228;7.828;2023-12-22T07:08:13;9.43;;;1.77;;
78589;SDS011;67888;50.228;7.828;2023-12-22T07:13:14;5.57;;;1.33;;
78589;SDS011;67888;50.228;7.828;2023-12-22T07:18:14;8.17;;;1.57;;
78589;SDS011;67888;50.228;7.828;2023-12-22T07:23:14;5.70;;;1.50;;
78589;SDS011;67888;50.228;7.828;2023-12-22T07:28:15;5.63;;;1.00;;
78589;SDS011;67888;50.228;7.828;2023-12-22T07:33:16;4.00;;;1.03;;
78589;SDS011;67888;50.228;7.828;2023-12-22T07:38:16;3.27;;;1.00;;
78589;SDS011;67888;50.228;7.828;2023-12-22T07:43:17;3.30;;;1.23;;
78589;SDS011;67888;50.228;7.828;2023-12-22T07:48:17;4.90;;;1.03;;
78589;SDS011;67888;50.228;7.828;2023-12-22T07:53:18;7.37;;;1.17;;
78589;SDS011;67888;50.228;7.828;2023-12-22T07:58:19;6.10;;;1.52;;
78589;SDS011;67888;50.228;7.828;2023-12-22T08:03:19;4.60;;;1.20;;
78589;SDS011;67888;50.228;7.828;2023-12-22T08:08:20;6.00;;;1.60;;
78589;SDS011;67888;50.228;7.828;2023-12-22T08:13:20;4.67;;;1.17;;
78589;SDS011;67888;50.228;7.828;2023-12-22T08:18:21;2.87;;;1.07;;
78589;SDS011;67888;50.228;7.828;2023-12-22T08:23:21;3.80;;;0.90;;
78589;SDS011;67888;50.228;7.828;2023-12-22T08:28:22;2.60;;;0.87;;
78589;SDS011;67888;50.228;7.828;2023-12-22T08:33:22;4.57;;;1.10;;
78589;SDS011;67888;50.228;7.828;2023-12-22T08:38:23;6.13;;;2.10;;
78589;SDS011;67888;50.228;7.828;2023-12-22T08:43:23;7.53;;;1.40;;
78589;SDS011;67888;50.228;7.828;2023-12-22T08:48:24;10.10;;;1.70;;
78589;SDS011;67888;50.228;7.828;2023-12-22T08:53:25;9.10;;;1.63;;
78589;SDS011;67888;50.228;7.828;2023-12-22T08:58:26;8.70;;;1.50;;
78589;SDS011;67888;50.228;7.828;2023-12-22T09:03:26;9.18;;;1.95;;
78589;SDS011;67888;50.228;7.828;2023-12-22T09:08:28;8.50;;;1.90;;
78589;SDS011;67888;50.228;7.828;2023-12-22T09:13:28;8.23;;;1.75;;
78589;SDS011;67888;50.228;7.828;2023-12-22T09:18:29;10.97;;;2.03;;
78589;SDS011;67888;50.228;7.828;2023-12-22T09:23:31;13.35;;;1.98;;
78589;SDS011;67888;50.228;7.828;2023-12-22T09:28:31;11.10;;;2.10;;
78589;SDS011;67888;50.228;7.828;2023-12-22T09:33:32;8.93;;;1.50;;
78589;SDS011;67888;50.228;7.828;2023-12-22T09:38:33;10.90;;;1.95;;
78589;SDS011;67888;50.228;7.828;2023-12-22T09:43:34;9.20;;;1.77;;
78589;SDS011;67888;50.228;7.828;2023-12-22T09:48:37;12.55;;;2.05;;
78589;SDS011;67888;50.228;7.828;2023-12-22T09:53:40;11.20;;;2.13;;
78589;SDS011;67888;50.228;7.828;2023-12-22T09:58:41;10.68;;;2.63;;
78589;SDS011;67888;50.228;7.828;2023-12-22T10:03:42;10.00;;;2.23;;
78589;SDS011;67888;50.228;7.828;2023-12-22T10:08:43;8.27;;;2.05;;
78589;SDS011;67888;50.228;7.828;2023-12-22T10:13:47;9.20;;;1.88;;
78589;SDS011;67888;50.228;7.828;2023-12-22T10:18:50;8.87;;;1.80;;
78589;SDS011;67888;50.228;7.828;2023-12-22T10:23:51;11.77;;;2.20;;
78589;SDS011;67888;50.228;7.828;2023-12-22T10:28:52;11.87;;;2.50;;
78589;SDS011;67888;50.228;7.828;2023-12-22T10:33:53;8.83;;;2.20;;
78589;SDS011;67888;50.228;7.828;2023-12-22T10:38:53;13.40;;;2.47;;
78589;SDS011;67888;50.228;7.828;2023-12-22T10:43:54;9.40;;;1.77;;
78589;SDS011;67888;50.228;7.828;2023-12-22T10:48:55;11.13;;;2.10;;
78589;SDS011;67888;50.228;7.828;2023-12-22T10:53:56;6.10;;;1.70;;
78589;SDS011;67888;50.228;7.828;2023-12-22T10:58:56;10.33;;;1.60;;
78589;SDS011;67888;50.228;7.828;2023-12-22T11:04:02;8.50;;;1.50;;
78589;SDS011;67888;50.228;7.828;2023-12-22T11:09:08;9.27;;;1.70;;
78589;SDS011;67888;50.228;7.828;2023-12-22T11:14:09;8.50;;;1.80;;
78589;SDS011;67888;50.228;7.828;2023-12-22T11:19:11;6.43;;;1.58;;
78589;SDS011;67888;50.228;7.828;2023-12-22T11:24:13;6.03;;;1.40;;
78589;SDS011;67888;50.228;7.828;2023-12-22T11:29:14;3.77;;;1.40;;
78589;SDS011;67888;50.228;7.828;2023-12-22T11:34:18;3.10;;;0.90;;
78589;SDS011;67888;50.228;7.828;2023-12-22T11:39:19;2.95;;;0.90;;
78589;SDS011;67888;50.228;7.828;2023-12-22T11:44:20;4.03;;;1.10;;
78589;SDS011;67888;50.228;7.828;2023-12-22T11:49:20;3.03;;;1.03;;
78589;SDS011;67888;50.228;7.828;2023-12-22T11:54:48;3.65;;;1.20;;
78589;SDS011;67888;50.228;7.828;2023-12-22T11:59:50;3.10;;;1.03;;
78589;SDS011;67888;50.228;7.828;2023-12-22T12:04:51;3.57;;;1.10;;
78589;SDS011;67888;50.228;7.828;2023-12-22T12:09:52;4.10;;;1.20;;
78589;SDS011;67888;50.228;7.828;2023-12-22T12:14:53;5.33;;;1.30;;
78589;SDS011;67888;50.228;7.828;2023-12-22T12:19:58;3.67;;;1.10;;
78589;SDS011;67888;50.228;7.828;2023-12-22T12:24:59;4.25;;;1.00;;
78589;SDS011;67888;50.228;7.828;2023-12-22T12:30:11;3.37;;;1.20;;
78589;SDS011;67888;50.228;7.828;2023-12-22T12:35:13;4.83;;;1.30;;
78589;SDS011;67888;50.228;7.828;2023-12-22T12:40:14;3.17;;;1.05;;
78589;SDS011;67888;50.228;7.828;2023-12-22T12:45:21;2.93;;;0.97;;
78589;SDS011;67888;50.228;7.828;2023-12-22T12:50:23;4.05;;;1.08;;
78589;SDS011;67888;50.228;7.828;2023-12-22T12:55:25;2.10;;;0.95;;
78589;SDS011;67888;50.228;7.828;2023-12-22T13:00:27;2.67;;;1.20;;
78589;SDS011;67888;50.228;7.828;2023-12-22T13:05:32;4.43;;;1.13;;
78589;SDS011;67888;50.228;7.828;2023-12-22T13:10:33;2.42;;;1.25;;
78589;SDS011;67888;50.228;7.828;2023-12-22T13:15:34;1.77;;;0.95;;
78589;SDS011;67888;50.228;7.828;2023-12-22T13:20:35;1.83;;;1.10;;
78589;SDS011;67888;50.228;7.828;2023-12-22T13:25:39;4.70;;;1.20;;
78589;SDS011;67888;50.228;7.828;2023-12-22T13:30:40;2.80;;;1.10;;
78589;SDS011;67888;50.228;7.828;2023-12-22T13:35:41;3.13;;;1.10;;
78589;SDS011;67888;50.228;7.828;2023-12-22T13:40:45;1.95;;;1.05;;
78589;SDS011;67888;50.228;7.828;2023-12-22T13:45:49;3.67;;;1.20;;
78589;SDS011;67888;50.228;7.828;2023-12-22T13:50:59;1.50;;;1.00;;
78589;SDS011;67888;50.228;7.828;2023-12-22T13:56:01;2.00;;;0.95;;
78589;SDS011;67888;50.228;7.828;2023-12-22T14:01:01;2.00;;;1.00;;
78589;SDS011;67888;50.228;7.828;2023-12-22T14:06:14;2.47;;;0.98;;
78589;SDS011;67888;50.228;7.828;2023-12-22T14:11:16;1.92;;;0.88;;
78589;SDS011;67888;50.228;7.828;2023-12-22T14:16:16;2.33;;;1.10;;
78589;SDS011;67888;50.228;7.828;2023-12-22T14:21:17;1.87;;;0.90;;
78589;SDS011;67888;50.228;7.828;2023-12-22T14:26:18;3.00;;;1.23;;
78589;SDS011;67888;50.228;7.828;2023-12-22T14:31:18;3.50;;;1.70;;
78589;SDS011;67888;50.228;7.828;2023-12-22T14:36:18;1.70;;;0.80;;
78589;SDS011;67888;50.228;7.828;2023-12-22T14:41:19;3.50;;;1.07;;
78589;SDS011;67888;50.228;7.828;2023-12-22T14:46:19;1.67;;;0.80;;
78589;SDS011;67888;50.228;7.828;2023-12-22T14:51:20;1.90;;;0.80;;
78589;SDS011;67888;50.228;7.828;2023-12-22T14:56:20;2.33;;;0.80;;
78589;SDS011;67888;50.228;7.828;2023-12-22T15:01:21;1.53;;;1.00;;
78589;SDS011;67888;50.228;7.828;2023-12-22T15:06:21;1.93;;;0.90;;
78589;SDS011;67888;50.228;7.828;2023-12-22T15:11:22;2.73;;;1.10;;
78589;SDS011;67888;50.228;7.828;2023-12-22T15:16:22;2.17;;;0.80;;
78589;SDS011;67888;50.228;7.828;2023-12-22T15:21:22;1.63;;;0.73;;
78589;SDS011;67888;50.228;7.828;2023-12-22T15:26:24;1.85;;;1.00;;
78589;SDS011;67888;50.228;7.828;2023-12-22T15:31:28;2.15;;;0.93;;
78589;SDS011;67888;50.228;7.828;2023-12-22T15:36:31;5.73;;;1.10;;
78589;SDS011;67888;50.228;7.828;2023-12-22T15:41:32;2.10;;;0.87;;
78589;SDS011;67888;50.228;7.828;2023-12-22T15:46:32;3.90;;;1.10;;
78589;SDS011;67888;50.228;7.828;2023-12-22T15:51:33;2.60;;;0.93;;
78589;SDS011;67888;50.228;7.828;2023-12-22T15:56:34;2.38;;;0.82;;
78589;SDS011;67888;50.228;7.828;2023-12-22T16:01:41;1.77;;;0.80;;
78589;SDS011;67888;50.228;7.828;2023-12-22T16:06:42;5.23;;;1.10;;
78589;SDS011;67888;50.228;7.828;2023-12-22T16:11:42;3.72;;;0.95;;
78589;SDS011;67888;50.228;7.828;2023-12-22T16:16:43;3.73;;;1.00;;
78589;SDS011;67888;50.228;7.828;2023-12-22T16:21:43;2.10;;;0.90;;
78589;SDS011;67888;50.228;7.828;2023-12-22T16:26:45;2.23;;;1.10;;
78589;SDS011;67888;50.228;7.828;2023-12-22T16:31:45;2.40;;;0.90;;
78589;SDS011;67888;50.228;7.828;2023-12-22T16:36:46;1.87;;;1.20;;
78589;SDS011;67888;50.228;7.828;2023-12-22T16:41:46;1.57;;;0.93;;
78589;SDS011;67888;50.228;7.828;2023-12-22T16:46:47;2.20;;;1.00;;
78589;SDS011;67888;50.228;7.828;2023-12-22T16:51:48;2.90;;;1.10;;
78589;SDS011;67888;50.228;7.828;2023-12-22T16:56:50;3.38;;;1.10;;
78589;SDS011;67888;50.228;7.828;2023-12-22T17:01:50;3.20;;;1.47;;
78589;SDS011;67888;50.228;7.828;2023-12-22T17:06:51;2.10;;;1.30;;
78589;SDS011;67888;50.228;7.828;2023-12-22T17:11:53;2.38;;;1.10;;
78589;SDS011;67888;50.228;7.828;2023-12-22T17:16:53;2.80;;;0.97;;
78589;SDS011;67888;50.228;7.828;2023-12-22T17:21:54;2.57;;;1.00;;
78589;SDS011;67888;50.228;7.828;2023-12-22T17:26:54;4.27;;;1.63;;
78589;SDS011;67888;50.228;7.828;2023-12-22T17:31:56;2.00;;;1.00;;
78589;SDS011;67888;50.228;7.828;2023-12-22T17:36:57;2.00;;;1.00;;
78589;SDS011;67888;50.228;7.828;2023-12-22T17:41:58;4.77;;;1.20;;
78589;SDS011;67888;50.228;7.828;2023-12-22T17:46:58;2.33;;;1.23;;
78589;SDS011;67888;50.228;7.828;2023-12-22T17:52:03;2.00;;;1.20;;
78589;SDS011;67888;50.228;7.828;2023-12-22T17:57:05;4.30;;;1.23;;
78589;SDS011;67888;50.228;7.828;2023-12-22T18:02:05;3.60;;;1.17;;
78589;SDS011;67888;50.228;7.828;2023-12-22T18:07:06;4.50;;;1.10;;
78589;SDS011;67888;50.228;7.828;2023-12-22T18:12:07;2.47;;;0.90;;
78589;SDS011;67888;50.228;7.828;2023-12-22T18:17:08;2.95;;;1.15;;
78589;SDS011;67888;50.228;7.828;2023-12-22T18:22:10;1.70;;;0.98;;
78589;SDS011;67888;50.228;7.828;2023-12-22T18:27:12;2.33;;;0.93;;
78589;SDS011;67888;50.228;7.828;2023-12-22T18:32:14;2.35;;;0.95;;
78589;SDS011;67888;50.228;7.828;2023-12-22T18:37:17;4.03;;;0.90;;
78589;SDS011;67888;50.228;7.828;2023-12-22T18:42:19;5.50;;;1.23;;
78589;SDS011;67888;50.228;7.828;2023-12-22T18:47:20;2.60;;;1.00;;
78589;SDS011;67888;50.228;7.828;2023-12-22T18:52:20;3.17;;;1.00;;
78589;SDS011;67888;50.228;7.828;2023-12-22T18:57:22;3.13;;;1.10;;
78589;SDS011;67888;50.228;7.828;2023-12-22T19:02:24;2.72;;;1.08;;
78589;SDS011;67888;50.228;7.828;2023-12-22T19:07:26;2.70;;;0.90;;
78589;SDS011;67888;50.228;7.828;2023-12-22T19:12:31;3.83;;;1.10;;
78589;SDS011;67888;50.228;7.828;2023-12-22T19:17:34;3.20;;;1.00;;
78589;SDS011;67888;50.228;7.828;2023-12-22T19:22:37;4.53;;;1.10;;
78589;SDS011;67888;50.228;7.828;2023-12-22T19:27:38;2.47;;;0.90;;
78589;SDS011;67888;50.228;7.828;2023-12-22T19:32:38;1.97;;;0.97;;
78589;SDS011;67888;50.228;7.828;2023-12-22T19:37:40;5.87;;;1.20;;
78589;SDS011;67888;50.228;7.828;2023-12-22T19:42:54;4.63;;;1.13;;
78589;SDS011;67888;50.228;7.828;2023-12-22T19:48:08;3.75;;;1.00;;
78589;SDS011;67888;50.228;7.828;2023-12-22T19:53:25;3.57;;;1.03;;
78589;SDS011;67888;50.228;7.828;2023-12-22T19:58:37;2.90;;;1.00;;
78589;SDS011;67888;50.228;7.828;2023-12-22T20:03:46;2.17;;;0.90;;
78589;SDS011;67888;50.228;7.828;2023-12-22T20:08:56;3.00;;;1.20;;
78589;SDS011;67888;50.228;7.828;2023-12-22T20:14:00;6.43;;;1.23;;
78589;SDS011;67888;50.228;7.828;2023-12-22T20:19:19;2.60;;;0.80;;
78589;SDS011;67888;50.228;7.828;2023-12-22T20:24:33;3.33;;;1.03;;
78589;SDS011;67888;50.228;7.828;2023-12-22T20:29:40;2.90;;;1.15;;
78589;SDS011;67888;50.228;7.828;2023-12-22T20:34:52;5.53;;;1.10;;
78589;SDS011;67888;50.228;7.828;2023-12-22T20:40:01;3.93;;;1.20;;
78589;SDS011;67888;50.228;7.828;2023-12-22T20:45:10;2.42;;;1.08;;
78589;SDS011;67888;50.228;7.828;2023-12-22T20:50:21;6.32;;;1.20;;
78589;SDS011;67888;50.228;7.828;2023-12-22T20:55:31;3.97;;;1.83;;
78589;SDS011;67888;50.228;7.828;2023-12-22T21:00:44;4.40;;;1.13;;
78589;SDS011;67888;50.228;7.828;2023-12-22T21:05:52;3.45;;;1.10;;
78589;SDS011;67888;50.228;7.828;2023-12-22T21:11:02;4.37;;;1.20;;
78589;SDS011;67888;50.228;7.828;2023-12-22T21:16:07;5.13;;;1.13;;
78589;SDS011;67888;50.228;7.828;2023-12-22T21:21:08;4.70;;;1.20;;
78589;SDS011;67888;50.228;7.828;2023-12-22T21:26:17;4.43;;;1.47;;
78589;SDS011;67888;50.228;7.828;2023-12-22T21:31:19;4.47;;;1.30;;
78589;SDS011;67888;50.228;7.828;2023-12-22T21:36:20;4.83;;;1.37;;
78589;SDS011;67888;50.228;7.828;2023-12-22T21:41:24;3.83;;;1.17;;
78589;SDS011;67888;50.228;7.828;2023-12-22T21:46:25;4.45;;;1.17;;
78589;SDS011;67888;50.228;7.828;2023-12-22T21:51:26;3.63;;;1.20;;
78589;SDS011;67888;50.228;7.828;2023-12-22T21:56:30;3.97;;;1.50;;
78589;SDS011;67888;50.228;7.828;2023-12-22T22:01:32;4.57;;;1.03;;
78589;SDS011;67888;50.228;7.828;2023-12-22T22:06:32;2.55;;;1.13;;
78589;SDS011;67888;50.228;7.828;2023-12-22T22:11:33;3.70;;;1.30;;
78589;SDS011;67888;50.228;7.828;2023-12-22T22:16:37;4.80;;;1.20;;
78589;SDS011;67888;50.228;7.828;2023-12-22T22:21:40;2.67;;;1.05;;
78589;SDS011;67888;50.228;7.828;2023-12-22T22:26:51;3.20;;;1.02;;
78589;SDS011;67888;50.228;7.828;2023-12-22T22:31:52;2.70;;;1.10;;
78589;SDS011;67888;50.228;7.828;2023-12-22T22:36:53;3.22;;;1.20;;
78589;SDS011;67888;50.228;7.828;2023-12-22T22:41:55;3.83;;;1.20;;
78589;SDS011;67888;50.228;7.828;2023-12-22T22:46:56;3.78;;;1.08;;
78589;SDS011;67888;50.228;7.828;2023-12-22T22:51:58;3.40;;;1.20;;
78589;SDS011;67888;50.228;7.828;2023-12-22T22:57:00;3.53;;;1.10;;
78589;SDS011;67888;50.228;7.828;2023-12-22T23:02:03;4.32;;;0.95;;
78589;SDS011;67888;50.228;7.828;2023-12-22T23:07:05;3.47;;;1.20;;
78589;SDS011;67888;50.228;7.828;2023-12-22T23:12:06;3.83;;;1.03;;
78589;SDS011;67888;50.228;7.828;2023-12-22T23:17:06;4.63;;;1.33;;
78589;SDS011;67888;50.228;7.828;2023-12-22T23:22:10;4.90;;;1.40;;
78589;SDS011;67888;50.228;7.828;2023-12-22T23:27:18;4.25;;;0.85;;
78589;SDS011;67888;50.228;7.828;2023-12-22T23:32:18;5.00;;;1.40;;
78589;SDS011;67888;50.228;7.828;2023-12-22T23:37:19;3.43;;;1.20;;
78589;SDS011;67888;50.228;7.828;2023-12-22T23:42:19;2.65;;;1.10;;
78589;SDS011;67888;50.228;7.828;2023-12-22T23:47:20;2.93;;;1.10;;
78589;SDS011;67888;50.228;7.828;2023-12-22T23:52:20;2.93;;;0.90;;
78589;SDS011;67888;50.228;7.828;2023-12-22T23:57:21;3.63;;;0.70;;
